createdAt,value
2018-10-01T00:00:01.647Z,13.19
2018-10-01T00:02:29.372Z,13.20
2018-10-01T00:04:57.111Z,13.12
2018-10-01T00:07:24.843Z,13.11
2018-10-01T00:09:52.681Z,13.08
2018-10-01T00:12:20.419Z,13.07
2018-10-01T00:14:48.149Z,13.09
2018-10-01T00:17:15.894Z,13.09
2018-10-01T00:19:49.078Z,13.09
2018-10-01T00:22:22.204Z,13.04
2018-10-01T00:24:49.913Z,13.05
2018-10-01T00:27:17.630Z,13.09
2018-10-01T00:29:45.358Z,13.16
2018-10-01T00:32:13.070Z,13.19
2018-10-01T00:34:40.790Z,13.10
2018-10-01T00:37:08.538Z,13.15
2018-10-01T00:39:36.275Z,13.15
2018-10-01T00:42:04.031Z,13.17
2018-10-01T00:44:31.777Z,13.21
2018-10-01T00:46:59.499Z,13.14
2018-10-01T00:49:27.281Z,13.21
2018-10-01T00:51:54.996Z,13.13
2018-10-01T00:54:22.725Z,13.10
2018-10-01T00:56:50.443Z,13.16
2018-10-01T00:59:18.211Z,13.14
2018-10-01T01:01:45.943Z,13.16
2018-10-01T01:04:13.690Z,13.19
2018-10-01T01:06:41.406Z,13.22
2018-10-01T01:09:09.317Z,13.15
2018-10-01T01:11:37.030Z,13.14
2018-10-01T01:14:04.850Z,13.19
2018-10-01T01:16:32.574Z,13.15
2018-10-01T01:19:00.281Z,13.16
2018-10-01T01:21:28.036Z,13.15
2018-10-01T01:23:55.742Z,13.14
2018-10-01T01:26:23.471Z,13.13
2018-10-01T01:28:51.180Z,13.12
2018-10-01T01:31:18.890Z,13.14
2018-10-01T01:33:46.618Z,13.12
2018-10-01T01:36:14.619Z,13.11
2018-10-01T01:38:42.379Z,13.15
2018-10-01T01:41:10.087Z,13.11
2018-10-01T01:43:37.806Z,13.16
2018-10-01T01:46:05.518Z,13.16
2018-10-01T01:48:33.234Z,13.12
2018-10-01T01:51:00.985Z,13.12
2018-10-01T01:53:28.704Z,13.14
2018-10-01T01:55:56.454Z,13.13
2018-10-01T01:58:24.148Z,13.10
2018-10-01T02:00:51.890Z,13.09
2018-10-01T02:03:19.613Z,13.14
2018-10-01T02:05:47.317Z,13.09
2018-10-01T02:08:15.043Z,13.05
2018-10-01T02:10:42.788Z,13.08
2018-10-01T02:13:10.498Z,13.11
2018-10-01T02:15:38.266Z,13.12
2018-10-01T02:18:06.044Z,13.06
2018-10-01T02:20:33.755Z,13.07
2018-10-01T02:23:01.478Z,13.05
2018-10-01T02:25:29.210Z,13.13
2018-10-01T02:27:56.937Z,13.09
2018-10-01T02:30:24.642Z,13.04
2018-10-01T02:32:52.382Z,13.08
2018-10-01T02:35:20.156Z,13.06
2018-10-01T02:37:47.924Z,13.06
2018-10-01T02:40:15.658Z,13.11
2018-10-01T02:42:43.378Z,13.17
2018-10-01T02:45:11.137Z,13.09
2018-10-01T02:47:38.951Z,13.12
2018-10-01T02:50:06.834Z,13.15
2018-10-01T02:52:39.959Z,13.15
2018-10-01T02:55:07.755Z,13.17
2018-10-01T02:57:35.476Z,13.12
2018-10-01T03:00:03.277Z,13.12
2018-10-01T03:02:31.004Z,13.14
2018-10-01T03:04:58.730Z,13.13
2018-10-01T03:07:26.450Z,13.17
2018-10-01T03:09:54.255Z,13.10
2018-10-01T03:12:22.065Z,13.09
2018-10-01T03:14:49.857Z,13.14
2018-10-01T03:17:17.553Z,13.10
2018-10-01T03:19:45.267Z,13.15
2018-10-01T03:22:13.379Z,13.09
2018-10-01T03:24:41.077Z,13.10
2018-10-01T03:27:08.778Z,13.04
2018-10-01T03:29:36.490Z,13.01
2018-10-01T03:32:04.264Z,13.16
2018-10-01T03:34:31.975Z,13.08
2018-10-01T03:36:59.673Z,13.08
2018-10-01T03:39:27.374Z,13.10
2018-10-01T03:41:55.091Z,13.07
2018-10-01T03:44:22.843Z,13.06
2018-10-01T03:46:50.550Z,13.05
2018-10-01T03:49:18.274Z,13.07
2018-10-01T03:51:46.199Z,13.03
2018-10-01T03:54:13.953Z,13.12
2018-10-01T03:56:41.665Z,13.10
2018-10-01T03:59:09.391Z,13.10
2018-10-01T04:01:37.102Z,13.05
2018-10-01T04:04:04.821Z,13.11
2018-10-01T04:06:32.665Z,13.03
2018-10-01T04:09:00.421Z,13.07
2018-10-01T04:11:28.135Z,13.04
2018-10-01T04:13:55.854Z,13.10
2018-10-01T04:16:23.570Z,13.10
2018-10-01T04:18:51.279Z,13.07
2018-10-01T04:21:18.994Z,13.05
2018-10-01T04:23:46.710Z,13.11
2018-10-01T04:26:14.434Z,13.06
2018-10-01T04:28:42.135Z,13.07
2018-10-01T04:31:09.849Z,13.08
2018-10-01T04:33:37.557Z,13.09
2018-10-01T04:36:05.359Z,13.11
2018-10-01T04:38:33.049Z,13.07
2018-10-01T04:41:00.772Z,13.08
2018-10-01T04:43:28.506Z,13.11
2018-10-01T04:45:56.209Z,13.10
2018-10-01T04:48:23.926Z,13.08
2018-10-01T04:50:51.634Z,13.12
2018-10-01T04:53:19.335Z,13.11
2018-10-01T04:55:47.018Z,13.14
2018-10-01T04:58:14.809Z,13.14
2018-10-01T05:00:42.481Z,13.06
2018-10-01T05:03:10.183Z,13.09
2018-10-01T05:05:37.873Z,13.10
2018-10-01T05:08:05.675Z,13.12
2018-10-01T05:10:33.773Z,13.10
2018-10-01T05:13:01.502Z,13.08
2018-10-01T05:15:29.214Z,13.11
2018-10-01T05:17:56.977Z,13.04
2018-10-01T05:20:24.779Z,13.04
2018-10-01T05:22:52.494Z,13.02
2018-10-01T05:25:20.210Z,13.07
2018-10-01T05:27:48.026Z,13.12
2018-10-01T05:30:15.729Z,13.11
2018-10-01T05:32:43.470Z,13.14
2018-10-01T05:35:11.210Z,13.17
2018-10-01T05:37:38.945Z,13.18
2018-10-01T05:40:06.746Z,13.17
2018-10-01T05:42:34.469Z,13.18
2018-10-01T05:45:02.222Z,13.21
2018-10-01T05:47:30.030Z,13.13
2018-10-01T05:49:57.730Z,13.20
2018-10-01T05:52:25.482Z,13.20
2018-10-01T05:54:53.237Z,13.21
2018-10-01T05:57:20.980Z,13.20
2018-10-01T05:59:48.698Z,13.24
2018-10-01T06:02:16.520Z,13.20
2018-10-01T06:04:44.286Z,13.22
2018-10-01T06:07:11.982Z,13.19
2018-10-01T06:09:39.697Z,13.25
2018-10-01T06:12:07.535Z,13.23
2018-10-01T06:14:35.250Z,13.20
2018-10-01T06:17:02.975Z,13.20
2018-10-01T06:19:30.727Z,13.24
2018-10-01T06:21:58.462Z,13.28
2018-10-01T06:24:26.182Z,13.21
2018-10-01T06:26:53.930Z,13.23
2018-10-01T06:29:21.678Z,13.29
2018-10-01T06:31:49.398Z,13.28
2018-10-01T06:34:17.113Z,13.29
2018-10-01T06:36:44.827Z,13.31
2018-10-01T06:39:12.598Z,13.28
2018-10-01T06:41:40.390Z,13.33
2018-10-01T06:44:08.490Z,13.34
2018-10-01T06:46:36.226Z,13.26
2018-10-01T06:49:04.038Z,13.31
2018-10-01T06:51:31.760Z,13.30
2018-10-01T06:53:59.506Z,13.35
2018-10-01T06:56:27.298Z,13.28
2018-10-01T06:58:55.022Z,13.32
2018-10-01T07:01:22.766Z,13.21
2018-10-01T07:03:50.514Z,13.29
2018-10-01T07:06:18.266Z,13.24
2018-10-01T07:08:46.066Z,13.24
2018-10-01T07:11:13.793Z,13.25
2018-10-01T07:13:41.549Z,13.28
2018-10-01T07:16:09.300Z,13.29
2018-10-01T07:18:37.042Z,13.32
2018-10-01T07:21:04.804Z,13.31
2018-10-01T07:23:32.571Z,13.31
2018-10-01T07:26:00.307Z,13.36
2018-10-01T07:28:28.064Z,13.32
2018-10-01T07:30:55.823Z,13.36
2018-10-01T07:33:23.554Z,13.36
2018-10-01T07:35:51.351Z,13.27
2018-10-01T07:38:19.231Z,13.20
2018-10-01T07:40:47.550Z,13.21
2018-10-01T07:43:15.347Z,13.26
2018-10-01T07:45:43.154Z,13.24
2018-10-01T07:48:10.944Z,13.24
2018-10-01T07:50:38.818Z,13.23
2018-10-01T07:53:06.691Z,13.29
2018-10-01T07:55:34.469Z,13.26
2018-10-01T07:58:02.205Z,13.30
2018-10-01T08:00:30.002Z,13.30
2018-10-01T08:02:57.681Z,13.26
2018-10-01T08:05:25.404Z,13.32
2018-10-01T08:07:53.146Z,13.32
2018-10-01T08:10:20.885Z,13.36
2018-10-01T08:12:48.598Z,13.26
2018-10-01T08:15:16.339Z,13.29
2018-10-01T08:17:44.078Z,13.32
2018-10-01T08:20:11.876Z,13.29
2018-10-01T08:22:39.556Z,13.37
2018-10-01T08:25:09.320Z,13.38
2018-10-01T08:27:37.141Z,13.34
2018-10-01T08:30:05.078Z,13.33
2018-10-01T08:32:32.808Z,13.38
2018-10-01T08:35:00.641Z,13.35
2018-10-01T08:37:28.338Z,13.40
2018-10-01T08:39:56.063Z,13.40
2018-10-01T08:42:23.786Z,13.41
2018-10-01T08:44:51.518Z,13.44
2018-10-01T08:47:19.470Z,13.47
2018-10-01T08:50:21.825Z,13.44
2018-10-01T08:52:57.029Z,13.45
2018-10-01T08:55:24.893Z,13.50
2018-10-01T08:57:52.658Z,13.47
2018-10-01T09:00:20.390Z,13.43
2018-10-01T09:02:48.973Z,13.50
2018-10-01T09:05:17.106Z,13.47
2018-10-01T09:07:44.791Z,13.48
2018-10-01T09:10:12.480Z,13.48
2018-10-01T09:12:40.185Z,13.50
2018-10-01T09:15:07.984Z,13.49
2018-10-01T09:17:35.761Z,13.53
2018-10-01T09:20:03.908Z,13.58
2018-10-01T09:22:31.622Z,13.57
2018-10-01T09:24:59.351Z,13.55
2018-10-01T09:27:27.085Z,13.58
2018-10-01T09:29:54.821Z,13.64
2018-10-01T09:32:22.590Z,13.65
2018-10-01T09:34:50.290Z,13.64
2018-10-01T09:37:18.024Z,13.69
2018-10-01T09:39:45.770Z,13.70
2018-10-01T09:42:13.548Z,13.73
2018-10-01T09:44:41.265Z,13.75
2018-10-01T09:47:08.999Z,13.74
2018-10-01T09:49:36.727Z,13.80
2018-10-01T09:52:04.521Z,13.80
2018-10-01T09:54:32.228Z,13.82
2018-10-01T09:56:59.996Z,13.84
2018-10-01T09:59:27.723Z,13.89
2018-10-01T10:01:55.485Z,13.97
2018-10-01T10:04:23.411Z,13.96
2018-10-01T10:06:51.083Z,13.93
2018-10-01T10:09:18.915Z,13.95
2018-10-01T10:11:46.698Z,13.95
2018-10-01T10:14:14.534Z,13.93
2018-10-01T10:16:42.336Z,13.94
2018-10-01T10:19:09.999Z,13.96
2018-10-01T10:21:37.730Z,13.97
2018-10-01T10:24:05.509Z,14.02
2018-10-01T10:26:33.307Z,13.96
2018-10-01T10:29:01.030Z,13.95
2018-10-01T10:31:28.761Z,13.94
2018-10-01T10:33:56.548Z,13.98
2018-10-01T10:36:24.276Z,13.98
2018-10-01T10:38:52.002Z,13.99
2018-10-01T10:41:19.741Z,14.00
2018-10-01T10:43:47.453Z,13.92
2018-10-01T10:46:15.184Z,13.96
2018-10-01T10:48:43.020Z,13.97
2018-10-01T10:51:10.762Z,14.02
2018-10-01T10:53:38.485Z,13.97
2018-10-01T10:56:06.464Z,13.99
2018-10-01T10:58:34.186Z,14.02
2018-10-01T11:01:01.920Z,14.00
2018-10-01T11:03:29.674Z,13.98
2018-10-01T11:05:57.380Z,13.99
2018-10-01T11:08:25.150Z,13.98
2018-10-01T11:10:52.861Z,14.01
2018-10-01T11:13:20.577Z,14.05
2018-10-01T11:15:48.298Z,14.00
2018-10-01T11:18:16.120Z,14.04
2018-10-01T11:20:43.853Z,14.02
2018-10-01T11:23:11.577Z,14.02
2018-10-01T11:25:39.403Z,14.02
2018-10-01T11:28:07.158Z,14.02
2018-10-01T11:30:34.926Z,14.05
2018-10-01T11:33:02.645Z,14.04
2018-10-01T11:35:30.450Z,14.03
2018-10-01T11:37:58.150Z,14.07
2018-10-01T11:40:25.869Z,14.06
2018-10-01T11:42:53.601Z,14.08
2018-10-01T11:45:21.489Z,14.13
2018-10-01T11:47:49.136Z,14.18
2018-10-01T11:50:16.913Z,14.19
2018-10-01T11:52:44.650Z,14.18
2018-10-01T11:55:12.378Z,14.21
2018-10-01T11:57:40.176Z,14.25
2018-10-01T12:00:08.765Z,14.25
2018-10-01T12:02:36.486Z,14.26
2018-10-01T12:05:04.674Z,14.28
2018-10-01T12:07:32.415Z,14.31
2018-10-01T12:10:00.244Z,14.28
2018-10-01T12:12:27.974Z,14.30
2018-10-01T12:14:55.779Z,14.32
2018-10-01T12:17:23.486Z,14.33
2018-10-01T12:19:51.208Z,14.35
2018-10-01T12:22:18.985Z,14.33
2018-10-01T12:24:46.683Z,14.33
2018-10-01T12:27:14.508Z,14.35
2018-10-01T12:29:42.198Z,14.36
2018-10-01T12:32:09.921Z,14.33
2018-10-01T12:34:37.639Z,14.31
2018-10-01T12:37:05.466Z,14.36
2018-10-01T12:39:33.294Z,14.35
2018-10-01T12:42:01.050Z,14.34
2018-10-01T12:44:29.502Z,14.33
2018-10-01T12:46:57.245Z,14.32
2018-10-01T12:49:24.965Z,14.34
2018-10-01T12:51:52.698Z,14.37
2018-10-01T12:54:20.424Z,14.37
2018-10-01T12:56:48.394Z,14.37
2018-10-01T12:59:16.113Z,14.37
2018-10-01T13:01:43.854Z,14.36
2018-10-01T13:04:11.606Z,14.40
2018-10-01T13:06:39.562Z,14.37
2018-10-01T13:09:09.754Z,14.34
2018-10-01T13:11:37.585Z,14.33
2018-10-01T13:14:05.375Z,14.34
2018-10-01T13:16:33.122Z,14.36
2018-10-01T13:19:00.878Z,14.35
2018-10-01T13:21:28.619Z,14.36
2018-10-01T13:23:56.401Z,14.35
2018-10-01T13:26:24.136Z,14.36
2018-10-01T13:28:51.870Z,14.38
2018-10-01T13:31:19.618Z,14.37
2018-10-01T13:33:47.430Z,14.38
2018-10-01T13:36:15.207Z,14.38
2018-10-01T13:38:49.571Z,14.42
2018-10-01T13:41:17.305Z,14.41
2018-10-01T13:43:45.052Z,14.39
2018-10-01T13:46:12.870Z,14.42
2018-10-01T13:48:40.722Z,14.45
2018-10-01T13:51:08.387Z,14.38
2018-10-01T13:53:36.528Z,14.39
2018-10-01T13:56:04.402Z,14.37
2018-10-01T13:58:32.214Z,14.42
2018-10-01T14:00:59.981Z,14.43
2018-10-01T14:03:27.760Z,14.41
2018-10-01T14:05:55.526Z,14.46
2018-10-01T14:08:23.262Z,14.43
2018-10-01T14:10:51.000Z,14.45
2018-10-01T14:13:18.784Z,14.46
2018-10-01T14:15:46.474Z,14.45
2018-10-01T14:18:14.253Z,14.43
2018-10-01T14:20:42.253Z,14.48
2018-10-01T14:23:09.986Z,14.46
2018-10-01T14:25:37.835Z,14.46
2018-10-01T14:28:05.490Z,14.45
2018-10-01T14:30:33.358Z,14.47
2018-10-01T14:33:00.983Z,14.51
2018-10-01T14:35:28.716Z,14.48
2018-10-01T14:37:56.447Z,14.48
2018-10-01T14:40:24.187Z,14.48
2018-10-01T14:42:51.915Z,14.49
2018-10-01T14:45:19.633Z,14.50
2018-10-01T14:47:47.357Z,14.50
2018-10-01T14:50:15.205Z,14.50
2018-10-01T14:52:42.930Z,14.50
2018-10-01T14:55:10.650Z,14.50
2018-10-01T14:57:38.359Z,14.50
2018-10-01T15:00:06.268Z,14.49
2018-10-01T15:02:33.991Z,14.50
2018-10-01T15:05:01.702Z,14.51
2018-10-01T15:07:29.418Z,14.52
2018-10-01T15:09:57.216Z,14.50
2018-10-01T15:12:25.144Z,14.52
2018-10-01T15:14:52.873Z,14.53
2018-10-01T15:17:20.645Z,14.54
2018-10-01T15:19:48.374Z,14.48
2018-10-01T15:22:16.133Z,14.52
2018-10-01T15:24:43.850Z,14.53
2018-10-01T15:27:11.573Z,14.54
2018-10-01T15:29:39.277Z,14.52
2018-10-01T15:32:07.097Z,14.53
2018-10-01T15:34:34.809Z,14.54
2018-10-01T15:37:02.544Z,14.53
2018-10-01T15:39:30.376Z,14.54
2018-10-01T15:41:58.177Z,14.52
2018-10-01T15:44:25.905Z,14.54
2018-10-01T15:46:53.659Z,14.54
2018-10-01T15:49:21.454Z,14.51
2018-10-01T15:51:49.162Z,14.53
2018-10-01T15:54:16.948Z,14.53
2018-10-01T15:56:44.663Z,14.53
2018-10-01T15:59:12.391Z,14.54
2018-10-01T16:01:40.142Z,14.54
2018-10-01T16:04:07.855Z,14.52
2018-10-01T16:06:35.582Z,14.51
2018-10-01T16:09:05.651Z,14.52
2018-10-01T16:11:33.439Z,14.49
2018-10-01T16:14:01.216Z,14.48
2018-10-01T16:16:28.925Z,14.50
2018-10-01T16:18:56.634Z,14.51
2018-10-01T16:21:24.359Z,14.51
2018-10-01T16:23:52.069Z,14.50
2018-10-01T16:26:19.782Z,14.53
2018-10-01T16:28:47.496Z,14.53
2018-10-01T16:31:15.261Z,14.52
2018-10-01T16:33:42.962Z,14.52
2018-10-01T16:36:10.698Z,14.52
2018-10-01T16:38:38.413Z,14.51
2018-10-01T16:41:06.565Z,14.51
2018-10-01T16:43:34.377Z,14.53
2018-10-01T16:46:02.087Z,14.52
2018-10-01T16:48:29.875Z,14.54
2018-10-01T16:50:57.624Z,14.53
2018-10-01T16:53:25.338Z,14.52
2018-10-01T16:55:53.070Z,14.56
2018-10-01T16:58:20.767Z,14.57
2018-10-01T17:00:48.545Z,14.54
2018-10-01T17:03:16.298Z,14.54
2018-10-01T17:05:44.046Z,14.57
2018-10-01T17:08:11.781Z,14.54
2018-10-01T17:10:39.544Z,14.54
2018-10-01T17:13:07.388Z,14.57
2018-10-01T17:15:35.087Z,14.54
2018-10-01T17:18:02.822Z,14.55
2018-10-01T17:20:30.821Z,14.59
2018-10-01T17:22:58.552Z,14.58
2018-10-01T17:25:26.254Z,14.59
2018-10-01T17:27:53.966Z,14.60
2018-10-01T17:30:21.924Z,14.62
2018-10-01T17:32:49.638Z,14.60
2018-10-01T17:35:17.364Z,14.61
2018-10-01T17:37:45.087Z,14.63
2018-10-01T17:40:13.023Z,14.62
2018-10-01T17:42:40.790Z,14.60
2018-10-01T17:45:08.617Z,14.61
2018-10-01T17:47:37.525Z,14.61
2018-10-01T17:50:05.567Z,14.61
2018-10-01T17:52:33.502Z,14.62
2018-10-01T17:55:01.217Z,14.60
2018-10-01T17:57:28.942Z,14.63
2018-10-01T17:59:57.057Z,14.65
2018-10-01T18:02:25.214Z,14.63
2018-10-01T18:04:53.098Z,14.61
2018-10-01T18:07:20.939Z,14.59
2018-10-01T18:09:48.806Z,14.59
2018-10-01T18:12:16.585Z,14.62
2018-10-01T18:14:44.321Z,14.62
2018-10-01T18:17:12.049Z,14.63
2018-10-01T18:19:39.795Z,14.63
2018-10-01T18:22:07.599Z,14.63
2018-10-01T18:24:35.322Z,14.64
2018-10-01T18:27:03.082Z,14.64
2018-10-01T18:29:30.811Z,14.64
2018-10-01T18:31:58.614Z,14.64
2018-10-01T18:34:26.342Z,14.65
2018-10-01T18:36:54.071Z,14.66
2018-10-01T18:39:24.343Z,14.63
2018-10-01T18:41:52.109Z,14.63
2018-10-01T18:44:19.834Z,14.64
2018-10-01T18:46:47.669Z,14.63
2018-10-01T18:49:16.034Z,14.64
2018-10-01T18:51:43.767Z,14.63
2018-10-01T18:54:13.751Z,14.65
2018-10-01T18:56:43.105Z,14.66
2018-10-01T18:59:10.852Z,14.64
2018-10-01T19:01:38.570Z,14.64
2018-10-01T19:04:06.350Z,14.65
2018-10-01T19:06:34.093Z,14.64
2018-10-01T19:09:02.129Z,14.63
2018-10-01T19:11:30.309Z,14.64
2018-10-01T19:13:58.030Z,14.65
2018-10-01T19:16:25.746Z,14.64
2018-10-01T19:18:53.557Z,14.64
2018-10-01T19:21:21.326Z,14.63
2018-10-01T19:23:49.100Z,14.64
2018-10-01T19:26:16.838Z,14.64
2018-10-01T19:28:44.597Z,14.63
2018-10-01T19:31:12.346Z,14.65
2018-10-01T19:33:40.085Z,14.63
2018-10-01T19:36:08.018Z,14.64
2018-10-01T19:38:35.705Z,14.64
2018-10-01T19:41:03.549Z,14.65
2018-10-01T19:43:31.327Z,14.64
2018-10-01T19:45:59.053Z,14.64
2018-10-01T19:48:26.761Z,14.66
2018-10-01T19:50:54.569Z,14.66
2018-10-01T19:53:22.335Z,14.66
2018-10-01T19:55:50.027Z,14.66
2018-10-01T19:58:17.758Z,14.68
2018-10-01T20:00:45.911Z,14.68
2018-10-01T20:03:13.650Z,14.68
2018-10-01T20:05:41.375Z,14.68
2018-10-01T20:08:09.114Z,14.68
2018-10-01T20:10:36.856Z,14.66
2018-10-01T20:13:04.805Z,14.66
2018-10-01T20:15:32.531Z,14.66
2018-10-01T20:18:00.247Z,14.67
2018-10-01T20:20:28.005Z,14.68
2018-10-01T20:22:55.762Z,14.69
2018-10-01T20:25:23.511Z,14.69
2018-10-01T20:27:51.350Z,14.68
2018-10-01T20:30:19.105Z,14.66
2018-10-01T20:32:46.762Z,14.67
2018-10-01T20:35:14.541Z,14.67
2018-10-01T20:37:42.295Z,14.69
2018-10-01T20:40:10.017Z,14.69
2018-10-01T20:42:37.829Z,14.69
2018-10-01T20:45:05.622Z,14.69
2018-10-01T20:47:33.385Z,14.67
2018-10-01T20:50:01.131Z,14.67
2018-10-01T20:52:28.921Z,14.66
2018-10-01T20:54:56.626Z,14.63
2018-10-01T20:57:24.351Z,14.67
2018-10-01T20:59:52.137Z,14.66
2018-10-01T21:02:19.905Z,14.67
2018-10-01T21:04:47.622Z,14.67
2018-10-01T21:07:15.346Z,14.63
2018-10-01T21:09:43.078Z,14.64
2018-10-01T21:12:10.799Z,14.61
2018-10-01T21:14:38.555Z,14.63
2018-10-01T21:17:06.268Z,14.65
2018-10-01T21:19:33.990Z,14.63
2018-10-01T21:22:01.701Z,14.62
2018-10-01T21:24:29.439Z,14.63
2018-10-01T21:26:57.174Z,14.62
2018-10-01T21:29:24.889Z,14.61
2018-10-01T21:31:52.610Z,14.63
2018-10-01T21:34:20.321Z,14.62
2018-10-01T21:36:48.036Z,14.65
2018-10-01T21:39:23.655Z,14.63
2018-10-01T21:41:51.393Z,14.58
2018-10-01T21:44:19.157Z,14.58
2018-10-01T21:46:46.910Z,14.55
2018-10-01T21:49:14.606Z,14.55
2018-10-01T21:51:42.317Z,14.45
2018-10-01T21:54:10.017Z,14.39
2018-10-01T21:56:37.732Z,14.38
2018-10-01T21:59:05.451Z,14.39
2018-10-01T22:01:37.203Z,14.39
2018-10-01T22:04:05.036Z,14.40
2018-10-01T22:06:32.904Z,14.35
2018-10-01T22:09:00.749Z,14.29
2018-10-01T22:11:28.454Z,14.32
2018-10-01T22:13:56.175Z,14.28
2018-10-01T22:16:23.897Z,14.34
2018-10-01T22:18:51.605Z,14.35
2018-10-01T22:21:19.346Z,14.29
2018-10-01T22:23:47.076Z,14.21
2018-10-01T22:26:14.794Z,14.19
2018-10-01T22:28:42.514Z,14.20
2018-10-01T22:31:10.243Z,14.21
2018-10-01T22:33:38.044Z,14.13
2018-10-01T22:36:05.842Z,14.11
2018-10-01T22:38:33.567Z,14.12
2018-10-01T22:41:02.136Z,14.09
2018-10-01T22:43:30.059Z,14.10
2018-10-01T22:45:57.802Z,14.08
2018-10-01T22:48:25.579Z,14.07
2018-10-01T22:50:53.499Z,14.04
2018-10-01T22:53:21.277Z,14.04
2018-10-01T22:55:49.002Z,14.00
2018-10-01T22:58:16.716Z,13.92
2018-10-01T23:00:44.669Z,13.96
2018-10-01T23:03:12.390Z,14.01
2018-10-01T23:05:40.113Z,13.99
2018-10-01T23:08:07.816Z,14.00
2018-10-01T23:10:35.581Z,14.00
2018-10-01T23:13:03.330Z,13.91
2018-10-01T23:15:31.172Z,13.78
2018-10-01T23:17:59.067Z,13.80
2018-10-01T23:20:26.928Z,13.85
2018-10-01T23:22:54.689Z,13.84
2018-10-01T23:25:22.470Z,13.75
2018-10-01T23:27:50.190Z,13.73
2018-10-01T23:30:17.930Z,13.72
2018-10-01T23:32:45.652Z,13.68
2018-10-01T23:35:13.387Z,13.68
2018-10-01T23:37:41.086Z,13.67
2018-10-01T23:40:08.835Z,13.69
2018-10-01T23:42:36.568Z,13.62
2018-10-01T23:45:04.426Z,13.62
2018-10-01T23:47:32.143Z,13.69
2018-10-01T23:49:59.876Z,13.68
2018-10-01T23:52:27.609Z,13.67
2018-10-01T23:54:55.334Z,13.61
2018-10-01T23:57:23.057Z,13.62
2018-10-01T23:59:50.787Z,13.63
